sensor_id;sensor_type;location;lat;lon;timestamp;P1;durP1;ratioP1;P2;durP2;ratioP2
16727;SDS011;8482;54.396;18.590;2023-02-01T00:00:33;4.40;;;1.07;;
16727;SDS011;8482;54.396;18.590;2023-02-01T00:02:59;6.07;;;1.00;;
16727;SDS011;8482;54.396;18.590;2023-02-01T00:05:26;4.00;;;1.13;;
16727;SDS011;8482;54.396;18.590;2023-02-01T00:07:52;6.43;;;1.20;;
16727;SDS011;8482;54.396;18.590;2023-02-01T00:10:17;4.77;;;0.90;;
16727;SDS011;8482;54.396;18.590;2023-02-01T00:12:43;1.93;;;0.80;;
16727;SDS011;8482;54.396;18.590;2023-02-01T00:15:10;2.47;;;0.80;;
16727;SDS011;8482;54.396;18.590;2023-02-01T00:17:36;2.97;;;0.93;;
16727;SDS011;8482;54.396;18.590;2023-02-01T00:20:02;3.90;;;1.13;;
16727;SDS011;8482;54.396;18.590;2023-02-01T00:22:28;5.67;;;1.27;;
16727;SDS011;8482;54.396;18.590;2023-02-01T00:24:54;4.20;;;1.10;;
16727;SDS011;8482;54.396;18.590;2023-02-01T00:27:20;2.77;;;0.63;;
16727;SDS011;8482;54.396;18.590;2023-02-01T00:29:46;7.23;;;0.83;;
16727;SDS011;8482;54.396;18.590;2023-02-01T00:32:12;5.23;;;1.47;;
16727;SDS011;8482;54.396;18.590;2023-02-01T00:34:38;3.83;;;0.80;;
16727;SDS011;8482;54.396;18.590;2023-02-01T00:37:04;5.03;;;1.20;;
16727;SDS011;8482;54.396;18.590;2023-02-01T00:39:30;4.33;;;0.80;;
16727;SDS011;8482;54.396;18.590;2023-02-01T00:41:56;2.50;;;0.80;;
16727;SDS011;8482;54.396;18.590;2023-02-01T00:44:22;2.27;;;0.73;;
16727;SDS011;8482;54.396;18.590;2023-02-01T00:46:47;3.27;;;0.93;;
16727;SDS011;8482;54.396;18.590;2023-02-01T00:49:13;2.60;;;0.90;;
16727;SDS011;8482;54.396;18.590;2023-02-01T00:51:39;9.47;;;1.50;;
16727;SDS011;8482;54.396;18.590;2023-02-01T00:54:05;5.30;;;1.00;;
16727;SDS011;8482;54.396;18.590;2023-02-01T00:56:31;2.70;;;0.73;;
16727;SDS011;8482;54.396;18.590;2023-02-01T00:58:56;4.00;;;0.70;;
16727;SDS011;8482;54.396;18.590;2023-02-01T01:01:23;1.97;;;0.87;;
16727;SDS011;8482;54.396;18.590;2023-02-01T01:04:00;2.50;;;0.80;;
16727;SDS011;8482;54.396;18.590;2023-02-01T01:06:30;3.43;;;0.70;;
16727;SDS011;8482;54.396;18.590;2023-02-01T01:08:59;2.63;;;0.90;;
16727;SDS011;8482;54.396;18.590;2023-02-01T01:11:30;4.10;;;0.93;;
16727;SDS011;8482;54.396;18.590;2023-02-01T01:14:00;2.87;;;1.00;;
16727;SDS011;8482;54.396;18.590;2023-02-01T01:16:28;3.73;;;1.10;;
16727;SDS011;8482;54.396;18.590;2023-02-01T01:18:55;4.17;;;0.90;;
16727;SDS011;8482;54.396;18.590;2023-02-01T01:21:22;3.37;;;1.00;;
16727;SDS011;8482;54.396;18.590;2023-02-01T01:23:49;5.57;;;0.97;;
16727;SDS011;8482;54.396;18.590;2023-02-01T01:26:17;3.77;;;0.80;;
16727;SDS011;8482;54.396;18.590;2023-02-01T01:28:48;3.73;;;1.20;;
16727;SDS011;8482;54.396;18.590;2023-02-01T01:31:15;4.10;;;1.60;;
16727;SDS011;8482;54.396;18.590;2023-02-01T01:33:42;4.73;;;1.30;;
16727;SDS011;8482;54.396;18.590;2023-02-01T01:36:09;3.87;;;0.80;;
16727;SDS011;8482;54.396;18.590;2023-02-01T01:38:37;7.43;;;1.20;;
16727;SDS011;8482;54.396;18.590;2023-02-01T01:41:07;1.70;;;0.80;;
16727;SDS011;8482;54.396;18.590;2023-02-01T01:46:26;4.37;;;0.97;;
16727;SDS011;8482;54.396;18.590;2023-02-01T01:48:57;2.43;;;0.80;;
16727;SDS011;8482;54.396;18.590;2023-02-01T01:51:55;5.37;;;1.00;;
16727;SDS011;8482;54.396;18.590;2023-02-01T01:54:30;2.60;;;0.87;;
16727;SDS011;8482;54.396;18.590;2023-02-01T01:57:09;3.00;;;0.73;;
16727;SDS011;8482;54.396;18.590;2023-02-01T02:00:03;3.40;;;1.17;;
16727;SDS011;8482;54.396;18.590;2023-02-01T02:02:36;5.53;;;1.70;;
16727;SDS011;8482;54.396;18.590;2023-02-01T02:05:04;3.33;;;0.80;;
16727;SDS011;8482;54.396;18.590;2023-02-01T02:07:32;3.97;;;1.20;;
16727;SDS011;8482;54.396;18.590;2023-02-01T02:10:04;4.10;;;1.00;;
16727;SDS011;8482;54.396;18.590;2023-02-01T02:12:37;3.73;;;0.97;;
16727;SDS011;8482;54.396;18.590;2023-02-01T02:15:07;5.27;;;1.33;;
16727;SDS011;8482;54.396;18.590;2023-02-01T02:17:36;5.23;;;1.37;;
16727;SDS011;8482;54.396;18.590;2023-02-01T02:34:44;4.20;;;0.87;;
16727;SDS011;8482;54.396;18.590;2023-02-01T02:42:52;5.13;;;1.20;;
16727;SDS011;8482;54.396;18.590;2023-02-01T02:46:01;3.80;;;1.00;;
16727;SDS011;8482;54.396;18.590;2023-02-01T02:48:55;6.43;;;1.20;;
16727;SDS011;8482;54.396;18.590;2023-02-01T02:51:41;4.70;;;1.40;;
16727;SDS011;8482;54.396;18.590;2023-02-01T02:54:36;2.47;;;0.80;;
16727;SDS011;8482;54.396;18.590;2023-02-01T02:57:13;8.70;;;1.53;;
16727;SDS011;8482;54.396;18.590;2023-02-01T03:00:00;4.87;;;1.03;;
16727;SDS011;8482;54.396;18.590;2023-02-01T03:02:50;2.37;;;0.93;;
16727;SDS011;8482;54.396;18.590;2023-02-01T03:05:36;2.57;;;0.77;;
16727;SDS011;8482;54.396;18.590;2023-02-01T03:08:25;2.13;;;0.70;;
16727;SDS011;8482;54.396;18.590;2023-02-01T03:11:02;2.23;;;0.70;;
16727;SDS011;8482;54.396;18.590;2023-02-01T03:16:33;4.23;;;0.90;;
16727;SDS011;8482;54.396;18.590;2023-02-01T03:19:31;3.13;;;0.80;;
16727;SDS011;8482;54.396;18.590;2023-02-01T03:22:09;2.90;;;1.07;;
16727;SDS011;8482;54.396;18.590;2023-02-01T03:24:46;4.87;;;1.10;;
16727;SDS011;8482;54.396;18.590;2023-02-01T03:27:27;5.60;;;1.10;;
16727;SDS011;8482;54.396;18.590;2023-02-01T03:32:52;3.50;;;1.57;;
16727;SDS011;8482;54.396;18.590;2023-02-01T03:35:28;4.40;;;1.00;;
16727;SDS011;8482;54.396;18.590;2023-02-01T03:38:30;5.00;;;1.30;;
16727;SDS011;8482;54.396;18.590;2023-02-01T03:41:53;4.43;;;0.97;;
16727;SDS011;8482;54.396;18.590;2023-02-01T03:44:32;2.80;;;0.90;;
16727;SDS011;8482;54.396;18.590;2023-02-01T03:47:07;3.87;;;1.00;;
16727;SDS011;8482;54.396;18.590;2023-02-01T03:52:48;3.90;;;0.90;;
16727;SDS011;8482;54.396;18.590;2023-02-01T03:55:19;3.43;;;1.17;;
16727;SDS011;8482;54.396;18.590;2023-02-01T03:57:50;3.23;;;0.80;;
16727;SDS011;8482;54.396;18.590;2023-02-01T04:00:28;1.93;;;0.50;;
16727;SDS011;8482;54.396;18.590;2023-02-01T04:02:54;2.17;;;0.60;;
16727;SDS011;8482;54.396;18.590;2023-02-01T04:05:20;5.37;;;0.60;;
16727;SDS011;8482;54.396;18.590;2023-02-01T04:07:47;2.93;;;0.67;;
16727;SDS011;8482;54.396;18.590;2023-02-01T04:10:13;2.07;;;0.60;;
16727;SDS011;8482;54.396;18.590;2023-02-01T04:12:39;3.13;;;1.23;;
16727;SDS011;8482;54.396;18.590;2023-02-01T04:15:05;2.20;;;0.80;;
16727;SDS011;8482;54.396;18.590;2023-02-01T04:17:32;4.90;;;1.13;;
16727;SDS011;8482;54.396;18.590;2023-02-01T04:19:58;3.93;;;1.23;;
16727;SDS011;8482;54.396;18.590;2023-02-01T04:22:24;4.70;;;1.20;;
16727;SDS011;8482;54.396;18.590;2023-02-01T04:24:50;4.37;;;1.67;;
16727;SDS011;8482;54.396;18.590;2023-02-01T04:27:16;3.50;;;1.10;;
16727;SDS011;8482;54.396;18.590;2023-02-01T04:29:42;5.40;;;1.10;;
16727;SDS011;8482;54.396;18.590;2023-02-01T04:32:10;3.67;;;1.00;;
16727;SDS011;8482;54.396;18.590;2023-02-01T04:34:36;8.03;;;1.53;;
16727;SDS011;8482;54.396;18.590;2023-02-01T04:37:02;7.90;;;1.57;;
16727;SDS011;8482;54.396;18.590;2023-02-01T04:39:28;5.57;;;1.30;;
16727;SDS011;8482;54.396;18.590;2023-02-01T04:41:54;5.43;;;1.10;;
16727;SDS011;8482;54.396;18.590;2023-02-01T04:44:20;5.27;;;1.17;;
16727;SDS011;8482;54.396;18.590;2023-02-01T04:46:46;4.57;;;0.93;;
16727;SDS011;8482;54.396;18.590;2023-02-01T04:49:12;6.07;;;1.50;;
16727;SDS011;8482;54.396;18.590;2023-02-01T04:51:40;5.20;;;1.20;;
16727;SDS011;8482;54.396;18.590;2023-02-01T04:54:06;4.80;;;1.40;;
16727;SDS011;8482;54.396;18.590;2023-02-01T04:56:33;7.70;;;1.63;;
16727;SDS011;8482;54.396;18.590;2023-02-01T04:59:02;4.37;;;0.90;;
16727;SDS011;8482;54.396;18.590;2023-02-01T05:01:28;3.70;;;1.30;;
16727;SDS011;8482;54.396;18.590;2023-02-01T05:03:55;5.53;;;0.83;;
16727;SDS011;8482;54.396;18.590;2023-02-01T05:06:21;6.43;;;1.50;;
16727;SDS011;8482;54.396;18.590;2023-02-01T05:08:47;5.57;;;1.50;;
16727;SDS011;8482;54.396;18.590;2023-02-01T05:11:14;4.57;;;1.13;;
16727;SDS011;8482;54.396;18.590;2023-02-01T05:13:59;4.40;;;1.37;;
16727;SDS011;8482;54.396;18.590;2023-02-01T05:16:25;7.60;;;1.90;;
16727;SDS011;8482;54.396;18.590;2023-02-01T05:18:52;5.80;;;1.17;;
16727;SDS011;8482;54.396;18.590;2023-02-01T05:21:19;5.23;;;1.07;;
16727;SDS011;8482;54.396;18.590;2023-02-01T05:23:45;5.40;;;1.03;;
16727;SDS011;8482;54.396;18.590;2023-02-01T05:26:30;3.77;;;1.00;;
16727;SDS011;8482;54.396;18.590;2023-02-01T05:28:56;6.47;;;1.03;;
16727;SDS011;8482;54.396;18.590;2023-02-01T05:31:23;2.13;;;0.50;;
16727;SDS011;8482;54.396;18.590;2023-02-01T05:33:49;3.70;;;0.70;;
16727;SDS011;8482;54.396;18.590;2023-02-01T05:36:15;2.60;;;0.70;;
16727;SDS011;8482;54.396;18.590;2023-02-01T05:38:41;1.90;;;0.70;;
16727;SDS011;8482;54.396;18.590;2023-02-01T05:41:07;4.57;;;0.70;;
16727;SDS011;8482;54.396;18.590;2023-02-01T05:43:33;3.90;;;0.73;;
16727;SDS011;8482;54.396;18.590;2023-02-01T05:45:59;7.77;;;1.77;;
16727;SDS011;8482;54.396;18.590;2023-02-01T05:48:25;3.93;;;1.13;;
16727;SDS011;8482;54.396;18.590;2023-02-01T05:50:51;5.27;;;1.23;;
16727;SDS011;8482;54.396;18.590;2023-02-01T05:53:17;3.83;;;1.07;;
16727;SDS011;8482;54.396;18.590;2023-02-01T05:55:43;3.50;;;0.87;;
16727;SDS011;8482;54.396;18.590;2023-02-01T05:58:09;1.93;;;0.70;;
16727;SDS011;8482;54.396;18.590;2023-02-01T06:00:35;2.10;;;0.73;;
16727;SDS011;8482;54.396;18.590;2023-02-01T06:03:00;3.00;;;0.90;;
16727;SDS011;8482;54.396;18.590;2023-02-01T06:05:26;5.30;;;0.87;;
16727;SDS011;8482;54.396;18.590;2023-02-01T06:07:52;5.00;;;1.00;;
16727;SDS011;8482;54.396;18.590;2023-02-01T06:10:18;4.00;;;0.90;;
16727;SDS011;8482;54.396;18.590;2023-02-01T06:12:45;5.17;;;1.47;;
16727;SDS011;8482;54.396;18.590;2023-02-01T06:15:12;6.00;;;1.30;;
16727;SDS011;8482;54.396;18.590;2023-02-01T06:17:41;5.73;;;1.47;;
16727;SDS011;8482;54.396;18.590;2023-02-01T06:20:08;8.03;;;1.50;;
16727;SDS011;8482;54.396;18.590;2023-02-01T06:22:37;4.60;;;1.30;;
16727;SDS011;8482;54.396;18.590;2023-02-01T06:25:04;9.80;;;1.83;;
16727;SDS011;8482;54.396;18.590;2023-02-01T06:27:32;4.17;;;1.17;;
16727;SDS011;8482;54.396;18.590;2023-02-01T06:29:59;5.13;;;1.30;;
16727;SDS011;8482;54.396;18.590;2023-02-01T06:32:25;5.40;;;1.20;;
16727;SDS011;8482;54.396;18.590;2023-02-01T06:34:51;7.67;;;1.33;;
16727;SDS011;8482;54.396;18.590;2023-02-01T06:37:21;6.17;;;1.10;;
16727;SDS011;8482;54.396;18.590;2023-02-01T06:39:48;9.20;;;2.00;;
16727;SDS011;8482;54.396;18.590;2023-02-01T06:42:14;6.47;;;1.57;;
16727;SDS011;8482;54.396;18.590;2023-02-01T06:44:40;6.73;;;1.47;;
16727;SDS011;8482;54.396;18.590;2023-02-01T06:47:06;6.50;;;1.60;;
16727;SDS011;8482;54.396;18.590;2023-02-01T06:49:32;5.87;;;1.47;;
16727;SDS011;8482;54.396;18.590;2023-02-01T06:51:58;9.37;;;1.80;;
16727;SDS011;8482;54.396;18.590;2023-02-01T06:54:27;5.07;;;1.40;;
16727;SDS011;8482;54.396;18.590;2023-02-01T06:56:53;7.07;;;1.70;;
16727;SDS011;8482;54.396;18.590;2023-02-01T06:59:19;6.10;;;1.30;;
16727;SDS011;8482;54.396;18.590;2023-02-01T07:01:45;6.47;;;1.40;;
16727;SDS011;8482;54.396;18.590;2023-02-01T07:04:11;3.90;;;1.13;;
16727;SDS011;8482;54.396;18.590;2023-02-01T07:06:38;8.67;;;1.93;;
16727;SDS011;8482;54.396;18.590;2023-02-01T07:09:04;5.40;;;1.57;;
16727;SDS011;8482;54.396;18.590;2023-02-01T07:11:31;8.67;;;1.70;;
16727;SDS011;8482;54.396;18.590;2023-02-01T07:13:57;9.40;;;1.87;;
16727;SDS011;8482;54.396;18.590;2023-02-01T07:16:23;8.50;;;3.20;;
16727;SDS011;8482;54.396;18.590;2023-02-01T07:18:50;4.57;;;1.40;;
16727;SDS011;8482;54.396;18.590;2023-02-01T07:21:17;11.43;;;1.93;;
16727;SDS011;8482;54.396;18.590;2023-02-01T07:23:44;7.33;;;1.90;;
16727;SDS011;8482;54.396;18.590;2023-02-01T07:26:11;5.97;;;1.90;;
16727;SDS011;8482;54.396;18.590;2023-02-01T07:28:39;7.13;;;1.80;;
16727;SDS011;8482;54.396;18.590;2023-02-01T07:31:09;11.00;;;2.70;;
16727;SDS011;8482;54.396;18.590;2023-02-01T07:33:43;7.27;;;2.00;;
16727;SDS011;8482;54.396;18.590;2023-02-01T07:36:11;7.07;;;1.60;;
16727;SDS011;8482;54.396;18.590;2023-02-01T07:38:42;6.87;;;1.60;;
16727;SDS011;8482;54.396;18.590;2023-02-01T07:41:08;8.17;;;1.67;;
16727;SDS011;8482;54.396;18.590;2023-02-01T07:43:35;9.93;;;2.57;;
16727;SDS011;8482;54.396;18.590;2023-02-01T07:46:01;4.73;;;1.57;;
16727;SDS011;8482;54.396;18.590;2023-02-01T07:48:29;12.07;;;2.23;;
16727;SDS011;8482;54.396;18.590;2023-02-01T07:50:57;8.53;;;1.80;;
16727;SDS011;8482;54.396;18.590;2023-02-01T07:53:31;9.90;;;2.00;;
16727;SDS011;8482;54.396;18.590;2023-02-01T07:55:59;5.80;;;1.53;;
16727;SDS011;8482;54.396;18.590;2023-02-01T07:58:26;6.43;;;2.13;;
16727;SDS011;8482;54.396;18.590;2023-02-01T08:00:52;8.10;;;1.60;;
16727;SDS011;8482;54.396;18.590;2023-02-01T08:03:42;7.97;;;1.80;;
16727;SDS011;8482;54.396;18.590;2023-02-01T08:06:08;8.33;;;2.40;;
16727;SDS011;8482;54.396;18.590;2023-02-01T08:08:34;11.60;;;3.00;;
16727;SDS011;8482;54.396;18.590;2023-02-01T08:11:00;7.87;;;1.90;;
16727;SDS011;8482;54.396;18.590;2023-02-01T08:13:29;8.60;;;2.80;;
16727;SDS011;8482;54.396;18.590;2023-02-01T08:15:59;9.20;;;1.80;;
16727;SDS011;8482;54.396;18.590;2023-02-01T08:18:27;7.03;;;1.90;;
16727;SDS011;8482;54.396;18.590;2023-02-01T08:20:53;12.53;;;2.43;;
16727;SDS011;8482;54.396;18.590;2023-02-01T08:23:20;12.23;;;2.60;;
16727;SDS011;8482;54.396;18.590;2023-02-01T08:25:47;9.93;;;2.50;;
16727;SDS011;8482;54.396;18.590;2023-02-01T08:28:13;7.73;;;1.83;;
16727;SDS011;8482;54.396;18.590;2023-02-01T08:30:39;11.67;;;2.00;;
16727;SDS011;8482;54.396;18.590;2023-02-01T08:33:07;9.97;;;3.60;;
16727;SDS011;8482;54.396;18.590;2023-02-01T08:35:37;10.17;;;3.67;;
16727;SDS011;8482;54.396;18.590;2023-02-01T08:38:03;13.73;;;2.23;;
16727;SDS011;8482;54.396;18.590;2023-02-01T08:40:30;14.83;;;2.97;;
16727;SDS011;8482;54.396;18.590;2023-02-01T08:42:56;7.07;;;1.90;;
16727;SDS011;8482;54.396;18.590;2023-02-01T08:45:23;11.57;;;2.90;;
16727;SDS011;8482;54.396;18.590;2023-02-01T08:47:53;9.27;;;1.90;;
16727;SDS011;8482;54.396;18.590;2023-02-01T08:50:20;8.97;;;2.07;;
16727;SDS011;8482;54.396;18.590;2023-02-01T08:52:48;15.57;;;2.77;;
16727;SDS011;8482;54.396;18.590;2023-02-01T08:55:14;11.07;;;1.97;;
16727;SDS011;8482;54.396;18.590;2023-02-01T08:57:41;10.20;;;1.97;;
16727;SDS011;8482;54.396;18.590;2023-02-01T09:00:08;9.00;;;2.63;;
16727;SDS011;8482;54.396;18.590;2023-02-01T09:02:40;8.13;;;2.10;;
16727;SDS011;8482;54.396;18.590;2023-02-01T09:05:07;9.80;;;2.23;;
16727;SDS011;8482;54.396;18.590;2023-02-01T09:07:33;5.87;;;1.57;;
16727;SDS011;8482;54.396;18.590;2023-02-01T09:10:00;8.13;;;2.90;;
16727;SDS011;8482;54.396;18.590;2023-02-01T09:12:27;8.90;;;2.00;;
16727;SDS011;8482;54.396;18.590;2023-02-01T09:14:55;9.20;;;2.27;;
16727;SDS011;8482;54.396;18.590;2023-02-01T09:17:24;10.53;;;2.60;;
16727;SDS011;8482;54.396;18.590;2023-02-01T09:19:51;10.63;;;2.40;;
16727;SDS011;8482;54.396;18.590;2023-02-01T09:22:17;9.40;;;2.70;;
16727;SDS011;8482;54.396;18.590;2023-02-01T09:24:43;11.20;;;2.00;;
16727;SDS011;8482;54.396;18.590;2023-02-01T09:27:09;10.07;;;2.43;;
16727;SDS011;8482;54.396;18.590;2023-02-01T09:29:35;8.83;;;1.87;;
16727;SDS011;8482;54.396;18.590;2023-02-01T09:32:01;9.07;;;1.87;;
16727;SDS011;8482;54.396;18.590;2023-02-01T09:34:27;6.60;;;1.80;;
16727;SDS011;8482;54.396;18.590;2023-02-01T09:36:53;4.73;;;1.43;;
16727;SDS011;8482;54.396;18.590;2023-02-01T09:39:19;9.43;;;2.93;;
16727;SDS011;8482;54.396;18.590;2023-02-01T09:41:48;7.17;;;1.70;;
16727;SDS011;8482;54.396;18.590;2023-02-01T09:47:22;5.40;;;1.50;;
16727;SDS011;8482;54.396;18.590;2023-02-01T09:52:44;5.05;;;1.85;;
16727;SDS011;8482;54.396;18.590;2023-02-01T09:55:39;10.63;;;2.87;;
16727;SDS011;8482;54.396;18.590;2023-02-01T09:58:18;9.13;;;3.30;;
16727;SDS011;8482;54.396;18.590;2023-02-01T10:01:35;7.07;;;1.93;;
16727;SDS011;8482;54.396;18.590;2023-02-01T10:04:03;8.73;;;1.77;;
16727;SDS011;8482;54.396;18.590;2023-02-01T10:06:41;9.13;;;1.90;;
16727;SDS011;8482;54.396;18.590;2023-02-01T10:12:36;7.10;;;1.83;;
16727;SDS011;8482;54.396;18.590;2023-02-01T10:15:30;7.18;;;1.40;;
16727;SDS011;8482;54.396;18.590;2023-02-01T10:24:34;9.00;;;3.42;;
16727;SDS011;8482;54.396;18.590;2023-02-01T10:27:23;9.45;;;1.80;;
16727;SDS011;8482;54.396;18.590;2023-02-01T10:30:00;5.82;;;1.63;;
16727;SDS011;8482;54.396;18.590;2023-02-01T10:32:45;4.93;;;1.25;;
16727;SDS011;8482;54.396;18.590;2023-02-01T10:35:41;5.90;;;1.92;;
16727;SDS011;8482;54.396;18.590;2023-02-01T10:38:21;7.88;;;1.77;;
16727;SDS011;8482;54.396;18.590;2023-02-01T10:40:56;7.72;;;1.52;;
16727;SDS011;8482;54.396;18.590;2023-02-01T10:43:37;6.50;;;1.30;;
16727;SDS011;8482;54.396;18.590;2023-02-01T10:46:04;5.60;;;1.92;;
16727;SDS011;8482;54.396;18.590;2023-02-01T10:48:31;5.97;;;1.48;;
16727;SDS011;8482;54.396;18.590;2023-02-01T10:50:58;5.72;;;1.63;;
16727;SDS011;8482;54.396;18.590;2023-02-01T10:53:35;4.40;;;1.10;;
16727;SDS011;8482;54.396;18.590;2023-02-01T10:56:18;4.90;;;1.23;;
16727;SDS011;8482;54.396;18.590;2023-02-01T10:58:49;5.82;;;2.28;;
16727;SDS011;8482;54.396;18.590;2023-02-01T11:01:20;3.33;;;1.38;;
16727;SDS011;8482;54.396;18.590;2023-02-01T11:03:55;3.67;;;1.10;;
16727;SDS011;8482;54.396;18.590;2023-02-01T11:11:32;5.47;;;1.50;;
16727;SDS011;8482;54.396;18.590;2023-02-01T11:14:13;4.22;;;2.08;;
16727;SDS011;8482;54.396;18.590;2023-02-01T11:17:34;9.02;;;2.20;;
16727;SDS011;8482;54.396;18.590;2023-02-01T11:19:43;5.15;;;1.80;;
16727;SDS011;8482;54.396;18.590;2023-02-01T11:22:11;5.25;;;1.50;;
16727;SDS011;8482;54.396;18.590;2023-02-01T11:24:39;4.53;;;1.55;;
16727;SDS011;8482;54.396;18.590;2023-02-01T11:27:15;3.08;;;1.10;;
16727;SDS011;8482;54.396;18.590;2023-02-01T11:29:46;5.88;;;1.70;;
16727;SDS011;8482;54.396;18.590;2023-02-01T11:32:18;4.82;;;1.15;;
16727;SDS011;8482;54.396;18.590;2023-02-01T11:34:59;4.63;;;1.50;;
16727;SDS011;8482;54.396;18.590;2023-02-01T11:37:37;4.03;;;1.00;;
16727;SDS011;8482;54.396;18.590;2023-02-01T11:43:07;2.35;;;0.80;;
16727;SDS011;8482;54.396;18.590;2023-02-01T11:45:57;1.75;;;0.70;;
16727;SDS011;8482;54.396;18.590;2023-02-01T11:48:30;3.63;;;0.88;;
16727;SDS011;8482;54.396;18.590;2023-02-01T11:51:14;1.95;;;0.70;;
16727;SDS011;8482;54.396;18.590;2023-02-01T12:06:20;2.85;;;0.90;;
16727;SDS011;8482;54.396;18.590;2023-02-01T12:10:17;4.57;;;1.00;;
16727;SDS011;8482;54.396;18.590;2023-02-01T12:23:29;2.28;;;1.10;;
16727;SDS011;8482;54.396;18.590;2023-02-01T12:39:24;4.43;;;1.10;;
16727;SDS011;8482;54.396;18.590;2023-02-01T12:42:07;2.53;;;1.20;;
16727;SDS011;8482;54.396;18.590;2023-02-01T12:48:11;3.53;;;0.93;;
16727;SDS011;8482;54.396;18.590;2023-02-01T12:51:04;2.30;;;1.00;;
16727;SDS011;8482;54.396;18.590;2023-02-01T12:53:52;2.13;;;0.87;;
16727;SDS011;8482;54.396;18.590;2023-02-01T12:56:34;2.07;;;0.80;;
16727;SDS011;8482;54.396;18.590;2023-02-01T13:04:52;1.60;;;0.80;;
16727;SDS011;8482;54.396;18.590;2023-02-01T13:07:45;2.00;;;1.00;;
16727;SDS011;8482;54.396;18.590;2023-02-01T13:10:17;2.07;;;0.80;;
16727;SDS011;8482;54.396;18.590;2023-02-01T13:13:08;3.60;;;0.90;;
16727;SDS011;8482;54.396;18.590;2023-02-01T13:16:19;3.80;;;0.90;;
16727;SDS011;8482;54.396;18.590;2023-02-01T13:19:03;2.87;;;1.07;;
16727;SDS011;8482;54.396;18.590;2023-02-01T13:21:53;1.40;;;0.63;;
16727;SDS011;8482;54.396;18.590;2023-02-01T13:27:14;3.13;;;1.13;;
16727;SDS011;8482;54.396;18.590;2023-02-01T13:30:02;3.60;;;1.20;;
16727;SDS011;8482;54.396;18.590;2023-02-01T13:41:24;6.00;;;1.50;;
16727;SDS011;8482;54.396;18.590;2023-02-01T13:44:01;5.03;;;1.30;;
16727;SDS011;8482;54.396;18.590;2023-02-01T13:46:45;6.83;;;2.07;;
16727;SDS011;8482;54.396;18.590;2023-02-01T13:49:18;4.10;;;1.47;;
16727;SDS011;8482;54.396;18.590;2023-02-01T13:51:51;5.68;;;1.60;;
16727;SDS011;8482;54.396;18.590;2023-02-01T13:54:39;7.13;;;1.50;;
16727;SDS011;8482;54.396;18.590;2023-02-01T13:57:06;5.27;;;1.70;;
16727;SDS011;8482;54.396;18.590;2023-02-01T14:00:45;6.27;;;1.63;;
16727;SDS011;8482;54.396;18.590;2023-02-01T14:10:46;5.50;;;1.70;;
16727;SDS011;8482;54.396;18.590;2023-02-01T14:13:28;6.17;;;2.20;;
16727;SDS011;8482;54.396;18.590;2023-02-01T14:16:10;8.10;;;1.70;;
16727;SDS011;8482;54.396;18.590;2023-02-01T14:21:15;7.07;;;2.20;;
16727;SDS011;8482;54.396;18.590;2023-02-01T14:26:45;8.43;;;1.73;;
16727;SDS011;8482;54.396;18.590;2023-02-01T14:34:39;4.37;;;1.30;;
16727;SDS011;8482;54.396;18.590;2023-02-01T14:50:42;4.72;;;1.63;;
16727;SDS011;8482;54.396;18.590;2023-02-01T15:01:15;4.13;;;1.30;;
16727;SDS011;8482;54.396;18.590;2023-02-01T15:03:55;5.13;;;1.52;;
16727;SDS011;8482;54.396;18.590;2023-02-01T15:09:14;5.03;;;1.40;;
16727;SDS011;8482;54.396;18.590;2023-02-01T15:17:20;2.33;;;1.10;;
16727;SDS011;8482;54.396;18.590;2023-02-01T15:19:53;3.43;;;1.20;;
16727;SDS011;8482;54.396;18.590;2023-02-01T15:22:21;3.43;;;1.20;;
16727;SDS011;8482;54.396;18.590;2023-02-01T15:24:54;3.63;;;1.27;;
16727;SDS011;8482;54.396;18.590;2023-02-01T15:27:23;5.13;;;2.00;;
16727;SDS011;8482;54.396;18.590;2023-02-01T15:29:51;4.10;;;1.30;;
16727;SDS011;8482;54.396;18.590;2023-02-01T15:32:39;5.07;;;1.20;;
16727;SDS011;8482;54.396;18.590;2023-02-01T15:35:06;3.17;;;1.20;;
16727;SDS011;8482;54.396;18.590;2023-02-01T15:41:00;2.57;;;1.00;;
16727;SDS011;8482;54.396;18.590;2023-02-01T15:46:36;3.90;;;1.27;;
16727;SDS011;8482;54.396;18.590;2023-02-01T15:51:53;4.80;;;1.33;;
16727;SDS011;8482;54.396;18.590;2023-02-01T15:54:28;4.28;;;1.33;;
16727;SDS011;8482;54.396;18.590;2023-02-01T15:57:25;4.77;;;1.50;;
16727;SDS011;8482;54.396;18.590;2023-02-01T15:59:58;4.70;;;1.67;;
16727;SDS011;8482;54.396;18.590;2023-02-01T16:02:34;3.90;;;1.70;;
16727;SDS011;8482;54.396;18.590;2023-02-01T16:05:04;5.60;;;1.67;;
16727;SDS011;8482;54.396;18.590;2023-02-01T16:07:58;3.37;;;1.20;;
16727;SDS011;8482;54.396;18.590;2023-02-01T16:10:41;5.57;;;1.60;;
16727;SDS011;8482;54.396;18.590;2023-02-01T16:13:11;4.83;;;1.50;;
16727;SDS011;8482;54.396;18.590;2023-02-01T16:15:38;3.90;;;1.30;;
16727;SDS011;8482;54.396;18.590;2023-02-01T16:18:05;6.50;;;1.67;;
16727;SDS011;8482;54.396;18.590;2023-02-01T16:20:33;3.77;;;1.40;;
16727;SDS011;8482;54.396;18.590;2023-02-01T16:23:02;4.63;;;1.47;;
16727;SDS011;8482;54.396;18.590;2023-02-01T16:25:29;6.43;;;1.50;;
16727;SDS011;8482;54.396;18.590;2023-02-01T16:27:55;4.33;;;2.00;;
16727;SDS011;8482;54.396;18.590;2023-02-01T16:30:21;6.20;;;1.67;;
16727;SDS011;8482;54.396;18.590;2023-02-01T16:32:48;7.13;;;2.40;;
16727;SDS011;8482;54.396;18.590;2023-02-01T16:35:27;8.90;;;2.57;;
16727;SDS011;8482;54.396;18.590;2023-02-01T16:38:01;6.80;;;2.10;;
16727;SDS011;8482;54.396;18.590;2023-02-01T16:40:33;6.47;;;2.23;;
16727;SDS011;8482;54.396;18.590;2023-02-01T16:43:00;6.87;;;2.20;;
16727;SDS011;8482;54.396;18.590;2023-02-01T16:45:26;7.90;;;2.37;;
16727;SDS011;8482;54.396;18.590;2023-02-01T16:47:53;6.93;;;2.50;;
16727;SDS011;8482;54.396;18.590;2023-02-01T16:50:22;7.47;;;2.37;;
16727;SDS011;8482;54.396;18.590;2023-02-01T16:52:51;7.13;;;2.00;;
16727;SDS011;8482;54.396;18.590;2023-02-01T16:55:18;7.53;;;2.60;;
16727;SDS011;8482;54.396;18.590;2023-02-01T16:57:46;6.60;;;2.20;;
16727;SDS011;8482;54.396;18.590;2023-02-01T17:00:12;7.77;;;2.00;;
16727;SDS011;8482;54.396;18.590;2023-02-01T17:02:42;7.77;;;2.23;;
16727;SDS011;8482;54.396;18.590;2023-02-01T17:05:10;6.87;;;2.40;;
16727;SDS011;8482;54.396;18.590;2023-02-01T17:07:37;7.00;;;1.90;;
16727;SDS011;8482;54.396;18.590;2023-02-01T17:10:05;6.27;;;2.10;;
16727;SDS011;8482;54.396;18.590;2023-02-01T17:12:46;6.03;;;1.70;;
16727;SDS011;8482;54.396;18.590;2023-02-01T17:15:12;8.50;;;2.20;;
16727;SDS011;8482;54.396;18.590;2023-02-01T17:17:38;8.00;;;2.20;;
16727;SDS011;8482;54.396;18.590;2023-02-01T17:20:07;5.47;;;2.30;;
16727;SDS011;8482;54.396;18.590;2023-02-01T17:22:44;7.73;;;2.43;;
16727;SDS011;8482;54.396;18.590;2023-02-01T17:25:14;7.87;;;2.20;;
16727;SDS011;8482;54.396;18.590;2023-02-01T17:27:44;7.60;;;2.20;;
16727;SDS011;8482;54.396;18.590;2023-02-01T17:30:11;6.73;;;2.50;;
16727;SDS011;8482;54.396;18.590;2023-02-01T17:32:39;8.93;;;2.13;;
16727;SDS011;8482;54.396;18.590;2023-02-01T17:35:08;6.30;;;2.47;;
16727;SDS011;8482;54.396;18.590;2023-02-01T17:37:43;12.30;;;2.43;;
16727;SDS011;8482;54.396;18.590;2023-02-01T17:40:09;7.97;;;2.10;;
16727;SDS011;8482;54.396;18.590;2023-02-01T17:42:36;6.63;;;2.17;;
16727;SDS011;8482;54.396;18.590;2023-02-01T17:45:12;7.37;;;2.47;;
16727;SDS011;8482;54.396;18.590;2023-02-01T17:47:45;8.90;;;2.43;;
16727;SDS011;8482;54.396;18.590;2023-02-01T17:50:12;7.07;;;2.20;;
16727;SDS011;8482;54.396;18.590;2023-02-01T17:52:39;8.90;;;2.57;;
16727;SDS011;8482;54.396;18.590;2023-02-01T17:55:13;9.33;;;2.90;;
16727;SDS011;8482;54.396;18.590;2023-02-01T17:57:44;6.23;;;2.30;;
16727;SDS011;8482;54.396;18.590;2023-02-01T18:00:10;6.87;;;2.33;;
16727;SDS011;8482;54.396;18.590;2023-02-01T18:02:37;9.70;;;3.00;;
16727;SDS011;8482;54.396;18.590;2023-02-01T18:08:08;8.53;;;2.17;;
16727;SDS011;8482;54.396;18.590;2023-02-01T18:10:35;7.63;;;1.90;;